Latest Weather Observations for Smithton

IDT60801

Issued at 1:31 pm EST Friday 29 July 2016 (issued every 30 minutes, with the page automatically refreshed every 10 minutes)

About weather observations | Map of weather stations | Latest weather observations for TAS | Other Formats
Station Details ID: 091292 Name: SMITHTON AERODROME Lat: -40.83 Lon: 145.08 Height: 7.5 m
Data from the previous 72 hours. | See also: Recent months at Smithton
Date/Time
EST
Temp
°C
App
Temp
°C
Dew
Point
°C
Rel
Hum
%
Delta-T
°C
Wind Press
QNH
hPa
Press
MSL
hPa
Rain since
9am
mm
Dir  Spd
km/h
Gust
km/h
Spd
kts
Gust
kts
29/01:30pm 13.2 5.7 9.3 77 2.0 W 39 57 21 31 1012.7 - 0.2
29/01:03pm 13.1 5.5 9.2 77 2.0 W 39 57 21 31 1012.8 - 0.2
29/01:00pm 13.0 5.5 9.4 79 1.8 W 39 52 21 28 1012.8 - 0.2
29/12:44pm 12.6 6.2 9.2 80 1.7 W 33 52 18 28 1013.0 - 0.2
29/12:30pm 13.1 6.5 9.9 81 1.6 W 35 44 19 24 1013.3 - 0.2
29/12:02pm 13.4 5.9 9.5 77 2.0 W 39 57 21 31 1013.4 - 0.2
29/12:00pm 13.3 5.2 8.8 74 2.3 W 41 57 22 31 1013.4 1013.4 0.2
29/11:30am 12.9 6.3 10.1 83 1.4 W 35 54 19 29 1013.6 - 0.2
29/11:02am 12.6 5.9 9.6 82 1.5 W 35 54 19 29 1013.8 - 0.2
29/11:00am 12.8 5.7 9.6 81 1.6 W 37 54 20 29 1013.8 - 0.2
29/10:30am 12.6 6.3 9.8 83 1.4 W 33 52 18 28 1013.7 - 0.2
29/10:29am 12.4 6.3 9.6 83 1.4 W 32 52 17 28 1013.7 - 0.2
29/10:00am 11.6 5.8 9.5 87 1.1 W 30 39 16 21 1013.6 - 0.2
29/09:30am 11.4 6.5 10.0 91 0.7 W 26 33 14 18 1013.5 - 0.0
29/09:00am 10.9 7.0 9.5 91 0.7 WSW 20 30 11 16 1013.8 1013.8 2.0
29/08:30am 10.7 7.0 9.3 91 0.7 W 19 26 10 14 1013.9 - 2.0
29/08:00am 10.1 6.2 8.5 90 0.8 W 19 26 10 14 1013.8 - 2.0
29/07:30am 10.2 6.4 9.0 92 0.6 W 19 28 10 15 1013.7 - 2.0
29/07:00am 9.9 7.1 8.5 91 0.7 W 13 15 7 8 1014.0 - 2.0
29/06:30am 10.1 6.6 8.7 91 0.7 W 17 20 9 11 1014.0 - 1.8
29/06:00am 10.1 6.2 8.7 91 0.7 W 19 26 10 14 1013.9 1013.9 1.8
29/05:30am 10.2 6.2 9.1 93 0.5 W 20 28 11 15 1013.7 - 1.8
29/05:00am 10.3 6.2 8.6 89 0.8 W 20 28 11 15 1013.6 - 1.8
29/04:30am 10.3 6.1 8.2 87 1.0 W 20 28 11 15 1013.7 - 1.8
29/04:00am 10.3 6.2 8.7 90 0.8 W 20 28 11 15 1013.9 - 1.8
29/03:30am 10.2 6.1 8.5 89 0.8 W 20 26 11 14 1013.9 - 1.8
29/03:00am 10.5 6.0 8.4 87 1.0 W 22 30 12 16 1014.1 1014.1 1.8
29/02:30am 10.4 6.4 8.2 86 1.1 W 19 24 10 13 1014.5 - 1.8
29/02:00am 10.2 5.8 7.6 84 1.2 W 20 26 11 14 1014.5 - 1.8
29/01:30am 10.2 5.6 8.0 86 1.1 W 22 30 12 16 1014.8 - 1.8
29/01:00am 10.1 5.5 8.2 88 0.9 W 22 30 12 16 1015.0 - 1.8
29/12:30am 10.0 5.1 8.4 90 0.8 W 24 30 13 16 1015.1 - 1.8
29/12:00am 10.1 6.7 9.0 93 0.5 W 17 20 9 11 1015.6 1015.6 1.8
 
Date/Time
EST
Temp
°C
App
Temp
°C
Dew
Point
°C
Rel
Hum
%
Delta-T
°C
Wind Press
QNH
hPa
Press
MSL
hPa
Rain since
9am
mm
Dir  Spd
km/h
Gust
km/h
Spd
kts
Gust
kts
28/11:30pm 10.2 5.5 9.3 94 0.4 W 24 33 13 18 1015.6 - 1.6
28/11:00pm 10.1 5.4 9.2 94 0.4 W 24 32 13 17 1015.7 - 1.4
28/10:30pm 10.0 6.0 8.9 93 0.5 W 20 33 11 18 1016.1 - 1.2
28/10:00pm 10.0 5.5 8.4 90 0.8 W 22 30 12 16 1016.3 - 1.0
28/09:30pm 9.3 5.8 7.1 86 1.0 W 15 20 8 11 1016.6 - 1.0
28/09:00pm 9.6 5.4 7.4 86 1.0 W 19 30 10 16 1016.8 1016.8 1.0
28/08:30pm 10.0 6.0 8.4 90 0.8 W 19 26 10 14 1016.9 - 1.0
28/08:00pm 10.0 6.2 9.1 94 0.4 WSW 19 26 10 14 1017.1 - 1.0
28/07:30pm 9.8 6.6 8.4 91 0.7 W 15 19 8 10 1017.1 - 0.8
28/07:00pm 10.1 6.8 7.9 86 1.1 WSW 15 20 8 11 1016.9 - 0.8
28/06:30pm 9.5 6.4 7.1 85 1.1 WSW 13 20 7 11 1016.7 - 0.8
28/06:00pm 9.9 5.7 7.5 85 1.1 WSW 19 26 10 14 1016.6 1016.6 0.8
28/05:30pm 10.3 4.4 7.4 82 1.4 W 28 46 15 25 1016.3 - 0.8
28/05:00pm 11.1 5.5 7.0 76 2.0 W 26 41 14 22 1016.2 - 0.8
28/04:30pm 10.9 4.7 8.0 82 1.4 W 30 44 16 24 1016.1 - 0.8
28/04:00pm 11.4 5.3 8.1 80 1.6 W 30 41 16 22 1015.7 - 0.8
28/03:30pm 11.9 5.7 7.8 76 2.0 WSW 30 48 16 26 1015.3 - 0.8
28/03:02pm 12.4 6.0 8.5 77 1.9 W 32 50 17 27 1015.0 - 0.8
28/03:00pm 12.3 5.9 8.6 78 1.8 W 32 44 17 24 1015.0 1015.0 0.8
28/02:30pm 12.1 3.8 7.8 75 2.1 W 41 56 22 30 1014.8 - 0.8
28/02:04pm 12.2 6.3 9.2 82 1.5 WSW 30 48 16 26 1015.1 - 0.8
28/02:00pm 12.3 6.0 9.7 84 1.3 W 33 48 18 26 1015.1 - 0.8
28/01:30pm 12.2 4.7 9.4 83 1.4 W 39 56 21 30 1015.4 - 0.8
28/01:00pm 11.2 4.5 9.8 91 0.7 W 35 54 19 29 1015.6 - 0.8
28/12:30pm 12.0 4.3 8.8 81 1.6 W 39 61 21 33 1015.9 - 0.6
28/12:22pm 12.3 5.8 9.1 81 1.6 W 33 61 18 33 1015.8 - 0.6
28/12:00pm 11.3 4.9 9.4 88 1.0 W 33 48 18 26 1016.0 1016.0 0.6
28/11:41am 11.2 3.7 9.3 88 1.0 W 39 59 21 32 1016.0 - 0.4
28/11:30am 11.6 4.9 9.7 88 1.0 W 35 50 19 27 1016.1 - 0.4
28/11:00am 11.2 4.5 9.6 90 0.8 W 35 52 19 28 1016.3 - 0.4
28/10:38am 11.9 5.2 9.6 86 1.2 W 35 59 19 32 1015.9 - 0.2
28/10:30am 11.8 5.5 9.7 87 1.1 W 33 50 18 27 1016.0 - 0.2
28/10:00am 11.1 4.4 9.5 90 0.8 W 35 44 19 24 1015.9 - 0.2
28/09:30am 11.1 4.7 9.5 90 0.8 W 33 46 18 25 1015.9 - 0.0
28/09:00am 10.7 4.2 9.1 90 0.8 W 33 48 18 26 1015.9 1015.9 4.8
28/08:30am 10.7 4.5 9.3 91 0.7 W 32 43 17 23 1015.6 - 4.8
28/08:12am 10.7 4.5 9.3 91 0.7 W 32 52 17 28 1015.4 - 4.8
28/08:00am 10.5 5.4 9.1 91 0.7 W 26 39 14 21 1015.4 - 4.8
28/07:30am 10.6 3.7 8.9 89 0.8 W 35 46 19 25 1015.1 - 4.8
28/07:00am 10.9 4.0 8.8 87 1.0 W 35 46 19 25 1014.8 - 4.8
28/06:30am 10.6 3.7 9.0 90 0.8 W 35 48 19 26 1014.5 - 4.8
28/06:00am 10.7 4.3 9.3 91 0.7 W 33 46 18 25 1014.2 1014.2 4.8
28/05:30am 10.7 3.9 9.3 91 0.7 W 35 50 19 27 1014.2 - 4.8
28/05:12am 10.7 4.3 9.5 92 0.6 W 33 52 18 28 1014.1 - 4.6
28/05:00am 10.6 4.8 9.4 92 0.6 W 30 41 16 22 1014.1 - 4.4
28/04:30am 10.7 3.9 9.3 91 0.7 W 35 44 19 24 1014.1 - 4.4
28/04:00am 10.6 4.7 9.2 91 0.7 W 30 41 16 22 1014.1 - 4.4
28/03:30am 10.6 5.6 9.4 92 0.6 W 26 33 14 18 1014.2 - 4.4
28/03:00am 10.4 6.1 9.3 93 0.5 W 22 30 12 16 1014.5 1014.5 4.4
28/02:30am 10.3 6.3 9.1 92 0.6 W 20 30 11 16 1014.8 - 4.2
28/02:00am 10.1 5.3 8.9 92 0.6 W 24 32 13 17 1014.8 - 4.2
28/01:30am 9.9 5.8 8.8 93 0.5 W 20 26 11 14 1014.6 - 4.0
28/01:00am 10.1 5.3 8.9 92 0.6 W 24 33 13 18 1014.2 - 4.0
28/12:30am 10.0 4.8 8.8 92 0.6 WSW 26 37 14 20 1014.3 - 4.0
28/12:00am 10.0 5.2 8.8 92 0.6 WSW 24 33 13 18 1014.4 1014.4 4.0
 
Date/Time
EST
Temp
°C
App
Temp
°C
Dew
Point
°C
Rel
Hum
%
Delta-T
°C
Wind Press
QNH
hPa
Press
MSL
hPa
Rain since
9am
mm
Dir  Spd
km/h
Gust
km/h
Spd
kts
Gust
kts
27/11:30pm 10.2 5.0 9.0 92 0.6 WSW 26 33 14 18 1014.4 - 3.8
27/11:00pm 10.2 4.7 9.0 92 0.6 WSW 28 35 15 19 1014.2 - 3.8
27/10:30pm 10.5 6.1 8.9 90 0.8 W 22 32 12 17 1014.1 - 3.4
27/10:00pm 10.6 4.3 9.0 90 0.8 W 32 41 17 22 1013.7 - 3.4
27/09:30pm 10.7 3.9 9.3 91 0.7 WSW 35 50 19 27 1013.4 - 3.4
27/09:00pm 10.7 4.4 9.6 93 0.6 W 33 48 18 26 1013.1 1013.1 3.4
27/08:38pm 10.8 3.2 9.2 90 0.8 W 39 57 21 31 1012.9 - 2.6
27/08:30pm 10.8 2.3 9.2 90 0.8 W 44 59 24 32 1012.8 - 2.6
27/08:21pm 10.7 3.5 9.3 91 0.7 W 37 56 20 30 1012.6 - 2.6
27/08:00pm 10.7 2.8 9.3 91 0.7 W 41 54 22 29 1012.3 - 1.8
27/07:30pm 10.7 3.1 9.0 89 0.8 W 39 52 21 28 1012.2 - 1.6
27/07:19pm 10.7 2.7 9.0 89 0.8 W 41 59 22 32 1012.2 - 1.6
27/07:00pm 10.3 2.7 8.9 91 0.7 W 39 52 21 28 1011.8 - 1.4
27/06:44pm 10.1 2.8 8.7 91 0.7 W 37 56 20 30 1011.8 - 1.4
27/06:30pm 9.8 2.5 8.6 92 0.6 W 37 52 20 28 1011.6 - 1.4
27/06:00pm 9.7 2.2 8.1 90 0.8 W 37 52 20 28 1011.7 1011.7 1.0
27/05:30pm 9.5 1.6 7.8 89 0.8 W 39 50 21 27 1011.5 - 1.0
27/05:01pm 9.3 1.2 6.9 85 1.1 W 39 57 21 31 1011.1 - 1.0
27/05:00pm 9.3 0.8 6.9 85 1.1 W 41 57 22 31 1011.0 - 1.0
27/04:48pm 9.5 2.0 6.4 81 1.4 W 35 54 19 29 1010.9 - 1.0
27/04:30pm 9.6 2.0 5.8 77 1.7 W 35 46 19 25 1010.8 - 1.0
27/04:00pm 9.5 1.9 5.7 77 1.7 W 35 46 19 25 1010.8 - 1.0
27/03:30pm 8.8 2.3 6.4 85 1.1 W 30 41 16 22 1010.9 - 1.0
27/03:00pm 9.3 2.3 6.0 80 1.5 W 32 39 17 21 1010.8 1010.8 0.8
27/02:44pm 9.0 2.3 5.6 79 1.5 W 30 50 16 27 1010.7 - 0.8
27/02:30pm 9.5 2.1 5.1 74 2.0 WSW 33 43 18 23 1010.8 - 0.6
27/02:00pm 10.3 2.4 4.5 67 2.6 WSW 35 56 19 30 1010.6 - 0.6
27/01:30pm 10.2 2.6 3.7 64 2.9 WSW 33 52 18 28 1010.5 - 0.6
27/01:26pm 9.8 2.9 4.6 70 2.3 WSW 30 52 16 28 1010.4 - 0.6
27/01:00pm 9.6 2.1 4.4 70 2.3 W 33 48 18 26 1010.5 - 0.6
27/12:30pm 9.1 3.1 5.5 78 1.6 W 26 39 14 21 1010.5 - 0.6
27/12:03pm 8.7 2.3 5.3 79 1.5 WSW 28 48 15 26 1010.6 - 0.2
27/12:00pm 8.5 2.5 5.4 81 1.4 WSW 26 35 14 19 1010.7 1010.7 0.2
27/11:30am 9.3 3.2 4.7 73 2.0 SW 26 35 14 19 1010.4 - 0.2
27/11:00am 7.8 -1.2 4.4 79 1.5 SW 41 54 22 29 1010.3 - 0.2
27/10:32am 8.7 1.0 3.3 69 2.3 WSW 33 52 18 28 1010.1 - 0.2
27/10:30am 8.5 0.3 2.7 67 2.4 WSW 35 52 19 28 1010.1 - 0.2
27/10:23am 9.5 2.6 2.6 62 2.9 WSW 28 50 15 27 1009.9 - 0.2
27/10:00am 9.1 3.8 3.1 66 2.6 WSW 20 28 11 15 1009.4 - 0.0
27/09:30am 8.3 3.2 3.2 70 2.2 W 19 32 10 17 1008.8 - 0.0
27/09:00am 7.3 2.5 2.8 73 1.9 WSW 17 24 9 13 1008.4 1008.4 58.4
27/08:30am 6.4 1.0 2.3 75 1.7 WSW 20 26 11 14 1007.8 - 58.4
27/08:00am 5.3 0.5 2.5 82 1.1 WSW 17 24 9 13 1007.1 - 58.4
27/07:30am 4.5 0.0 2.2 85 0.9 SW 15 17 8 9 1006.4 - 58.4
27/07:00am 5.1 0.2 2.3 82 1.1 SW 17 20 9 11 1005.6 - 58.4
27/06:30am 5.8 -0.6 3.0 82 1.2 SW 26 35 14 19 1004.9 - 58.4
27/06:16am 6.3 -0.4 3.6 83 1.1 SW 28 48 15 26 1004.8 - 58.4
27/06:00am 5.7 0.5 3.7 87 0.8 SW 20 28 11 15 1004.3 1004.3 58.4
27/05:30am 6.4 -1.6 3.9 84 1.1 SSW 35 46 19 25 1003.7 - 58.4
27/05:21am 6.7 0.2 4.7 87 0.9 SW 28 46 15 25 1003.5 - 58.4
27/05:00am 6.7 -0.2 4.7 87 0.9 SSW 30 43 16 23 1002.8 - 58.4
27/04:30am 7.2 0.0 4.9 85 1.0 SSW 32 44 17 24 1001.9 - 58.4
27/04:00am 7.9 0.8 6.2 89 0.8 SSW 33 46 18 25 1001.2 - 58.4
27/03:30am 8.3 0.2 6.8 90 0.7 SW 39 61 21 33 1000.6 - 58.4
27/03:22am 8.7 1.4 7.2 90 0.7 SW 35 61 19 33 1000.4 - 58.4
27/03:20am 8.8 2.1 7.4 91 0.7 SW 32 44 17 24 1000.4 - 58.4
27/03:00am 8.7 4.3 7.5 92 0.6 WSW 20 26 11 14 1000.0 1000.0 58.4
27/02:30am 9.3 2.8 8.1 92 0.6 WSW 32 41 17 22 999.7 - 58.4
27/02:00am 9.1 4.4 7.7 91 0.7 W 22 30 12 16 999.4 - 58.0
27/01:34am 9.3 3.2 8.1 92 0.6 W 30 48 16 26 999.2 - 57.8
27/01:30am 9.4 2.7 8.2 92 0.6 W 33 48 18 26 999.1 - 57.8
27/01:24am 9.5 3.4 8.4 93 0.5 W 30 48 16 26 999.1 - 57.8
27/01:00am 8.6 3.5 7.7 94 0.4 WNW 24 35 13 19 998.9 - 56.8
27/12:36am 7.8 1.0 7.1 95 0.3 WNW 32 50 17 27 998.7 - 51.4
27/12:34am 7.3 -0.5 6.6 95 0.3 WNW 37 50 20 27 999.0 - 51.0
27/12:30am 8.3 4.9 7.7 96 0.3 WNW 15 20 8 11 999.1 - 49.0
27/12:00am 7.8 4.2 6.9 94 0.4 WNW 15 28 8 15 999.5 999.5 39.8
 
Date/Time
EST
Temp
°C
App
Temp
°C
Dew
Point
°C
Rel
Hum
%
Delta-T
°C
Wind Press
QNH
hPa
Press
MSL
hPa
Rain since
9am
mm
Dir  Spd
km/h
Gust
km/h
Spd
kts
Gust
kts
26/11:30pm 7.4 -0.1 6.3 93 0.5 W 35 52 19 28 1000.0 - 37.8
26/11:21pm 8.3 0.2 7.2 93 0.5 W 39 52 21 28 1000.3 - 34.2
26/11:00pm 8.9 1.8 8.0 94 0.4 NW 35 54 19 29 999.8 - 31.2
26/10:56pm 8.9 3.1 8.1 95 0.4 NW 28 50 15 27 999.6 - 31.0
26/10:30pm 7.0 5.0 6.1 94 0.4 W 6 13 3 7 999.9 - 29.0
26/10:00pm 7.4 3.0 6.7 95 0.3 WSW 19 24 10 13 1000.6 - 23.8
26/09:30pm 7.4 4.5 6.7 95 0.3 WNW 11 15 6 8 1000.7 - 18.8
26/09:00pm 7.3 4.4 6.4 94 0.4 NW 11 17 6 9 1001.4 1001.4 16.2
26/08:30pm 7.4 0.8 6.2 92 0.5 WNW 30 37 16 20 1001.7 - 15.4
26/08:00pm 8.3 2.7 7.2 93 0.5 NW 26 35 14 19 1001.7 - 12.4
26/07:30pm 7.7 3.2 7.0 95 0.3 NW 20 30 11 16 1001.7 - 10.0
26/07:00pm 7.2 3.9 6.3 94 0.4 N 13 17 7 9 1001.9 - 8.4
26/06:30pm 7.2 2.7 6.0 92 0.5 NNW 19 24 10 13 1002.3 - 7.4
26/06:00pm 6.9 3.1 5.7 92 0.5 NW 15 20 8 11 1002.7 1002.7 7.0
26/05:30pm 6.7 0.3 5.2 90 0.7 WNW 28 39 15 21 1002.7 - 6.6
26/05:00pm 7.0 2.6 5.0 87 0.9 WSW 17 30 9 16 1002.8 - 4.4
26/04:40pm 8.2 1.5 5.7 84 1.1 NW 30 39 16 21 1002.7 - 3.6
26/04:30pm 7.6 5.4 5.4 86 1.0 WNW 6 20 3 11 1002.7 - 3.6
26/04:00pm 8.1 2.6 5.7 85 1.1 NW 24 37 13 20 1002.8 - 3.6
26/03:30pm 9.3 4.0 5.1 75 1.9 NW 22 28 12 15 1003.0 - 2.4
26/03:00pm 9.0 4.7 5.4 78 1.6 NW 17 26 9 14 1003.2 1003.2 2.4
26/02:30pm 8.6 4.1 6.2 85 1.1 NW 19 22 10 12 1003.5 - 2.4
26/02:00pm 7.3 0.8 4.9 85 1.1 NW 28 35 15 19 1004.0 - 2.2

Other Formats:

Comma delimited format used in spreadsheet applications
http://www.bom.gov.au/fwo/IDT60801/IDT60801.94953.axf

JavaScript Object Notation format (JSON) in row-major order
http://www.bom.gov.au/fwo/IDT60801/IDT60801.94953.json